Time;durP1;ratioP1;P1;durP2;ratioP2;P2;SDS_P1;SDS_P2;PMS_P1;PMS_P2;Temp;Humidity;BMP_temperature;BMP_pressure;BME280_temperature;BME280_humidity;BME280_pressure;Samples;Min_cycle;Max_cycle;Signal;HPM_P1;HPM_P2
2022/01/31 00:00:53;;;;;;;12.40;3.90;;;;;;;0.66;75.72;96075.78;107241;1267;127944;-82
2022/01/31 00:03:30;;;;;;;14.40;4.30;;;;;;;0.63;75.92;96086.59;107194;1268;111801;-82
2022/01/31 00:06:05;;;;;;;9.30;3.50;;;;;;;0.63;75.75;96072.66;105683;1267;2296708;-82
2022/01/31 00:08:45;;;;;;;11.20;3.20;;;;;;;0.65;75.53;96081.83;106275;1267;1558213;-82
2022/01/31 00:11:15;;;;;;;;;;;;;;;0.64;75.06;96092.71;107560;1268;128980;-82
2022/01/31 00:14:01;;;;;;;20.80;3.30;;;;;;;0.67;74.28;96082.70;107538;1267;163196;-82
2022/01/31 00:16:44;;;;;;;8.30;2.70;;;;;;;0.68;74.04;96097.33;107250;1268;126993;-82
2022/01/31 00:19:16;;;;;;;10.70;3.00;;;;;;;0.66;73.97;96100.69;105931;1268;2114838;-82
2022/01/31 00:21:54;;;;;;;7.00;2.80;;;;;;;0.66;73.74;96103.75;104405;1267;2626592;-81
2022/01/31 00:24:34;;;;;;;11.70;3.70;;;;;;;0.67;73.51;96101.36;105804;1268;2196272;-83
2022/01/31 00:27:13;;;;;;;9.30;3.30;;;;;;;0.65;73.50;96074.31;105587;1268;2495456;-82
2022/01/31 00:29:51;;;;;;;16.40;4.20;;;;;;;0.64;73.94;96091.66;103606;1268;2329723;-82
2022/01/31 00:32:23;;;;;;;15.70;3.70;;;;;;;0.60;74.11;96108.64;99808;1268;5022370;-82
2022/01/31 00:34:58;;;;;;;13.30;4.70;;;;;;;0.57;74.61;96103.41;104199;1268;4053378;-82
2022/01/31 00:37:30;;;;;;;7.20;3.10;;;;;;;0.46;76.19;96122.94;105531;1268;2300738;-82
2022/01/31 00:40:15;;;;;;;12.00;3.80;;;;;;;0.32;77.99;96126.30;107230;1268;119606;-81
2022/01/31 00:42:51;;;;;;;15.30;3.90;;;;;;;0.12;79.84;96124.84;106052;1267;1985235;-82
2022/01/31 00:45:27;;;;;;;10.30;3.40;;;;;;;0.04;80.44;96119.54;104381;1267;2383010;-81
2022/01/31 00:48:14;;;;;;;14.90;4.00;;;;;;;0.01;81.21;96120.83;105624;1268;2492342;-81
2022/01/31 00:50:47;;;;;;;10.70;3.40;;;;;;;-0.01;81.74;96099.25;107576;1268;130485;-82
2022/01/31 00:53:19;;;;;;;17.90;3.60;;;;;;;-0.03;82.16;96109.88;107565;1267;122804;-82
2022/01/31 00:55:57;;;;;;;15.00;4.40;;;;;;;-0.05;82.06;96109.90;103691;1267;2628862;-81
2022/01/31 00:58:34;;;;;;;19.20;4.80;;;;;;;-0.04;82.15;96118.19;105843;1268;1872120;-82
2022/01/31 01:01:07;;;;;;;15.80;4.30;;;;;;;-0.02;81.93;96116.42;105820;1268;2061453;-82
2022/01/31 01:03:38;;;;;;;16.00;4.70;;;;;;;0.00;81.56;96107.88;103460;1270;2626996;-82
2022/01/31 01:06:12;;;;;;;10.70;3.60;;;;;;;-0.01;81.84;96097.41;105496;1268;2493264;-81
2022/01/31 01:08:46;;;;;;;13.50;3.20;;;;;;;0.01;81.04;96085.81;107555;1268;104510;-81
2022/01/31 01:11:31;;;;;;;11.40;3.70;;;;;;;0.06;79.81;96083.73;106542;1268;1301548;-80
2022/01/31 01:14:04;;;;;;;12.30;4.00;;;;;;;0.14;78.80;96058.70;106456;1268;1418512;-82
2022/01/31 01:16:35;;;;;;;9.30;3.70;;;;;;;0.17;77.64;96076.19;101267;1267;6695559;-81
2022/01/31 01:19:07;;;;;;;10.70;3.20;;;;;;;0.16;77.82;96062.70;106488;1267;1286457;-82
2022/01/31 01:21:43;;;;;;;11.30;4.20;;;;;;;0.14;77.18;96058.61;101919;1268;5419015;-82
2022/01/31 01:24:20;;;;;;;18.60;3.10;;;;;;;0.13;77.34;96064.16;106367;1267;1631071;-81
2022/01/31 01:26:54;;;;;;;20.90;4.90;;;;;;;0.10;77.57;96058.89;107316;1268;127289;-82
2022/01/31 01:29:27;;;;;;;15.30;4.60;;;;;;;0.03;78.20;96050.72;105667;1268;2036302;-81
2022/01/31 01:31:58;;;;;;;11.40;3.70;;;;;;;-0.02;77.97;96047.27;105912;1268;2102222;-81
2022/01/31 01:34:34;;;;;;;17.60;4.80;;;;;;;-0.00;77.37;96044.54;107282;1268;129141;-82
2022/01/31 01:37:06;;;;;;;15.70;5.30;;;;;;;-0.03;77.54;96029.98;107231;1267;121831;-81
2022/01/31 01:39:42;;;;;;;17.10;3.70;;;;;;;-0.04;77.45;96052.16;106302;1271;1284491;-82
2022/01/31 01:42:15;;;;;;;12.40;3.20;;;;;;;-0.08;78.23;96047.71;103974;1268;2320701;-82
2022/01/31 01:44:50;;;;;;;8.10;2.40;;;;;;;-0.13;78.49;96035.50;107536;1268;134721;-82
2022/01/31 01:47:29;;;;;;;13.10;3.60;;;;;;;-0.11;78.06;96040.81;107288;1267;110667;-82
2022/01/31 01:50:04;;;;;;;6.90;2.80;;;;;;;-0.07;77.61;96054.82;104549;1268;2245829;-82
2022/01/31 01:52:39;;;;;;;14.10;4.30;;;;;;;-0.06;76.84;96033.73;107183;1268;157950;-82
2022/01/31 01:55:14;;;;;;;16.00;3.80;;;;;;;-0.03;76.86;96010.14;105946;1267;1691502;-82
2022/01/31 01:57:45;;;;;;;12.80;2.80;;;;;;;-0.06;76.44;96035.97;105866;1267;2076172;-82
2022/01/31 02:00:26;;;;;;;17.60;4.50;;;;;;;-0.09;77.10;96060.19;107469;1268;116726;-82
2022/01/31 02:03:00;;;;;;;8.60;3.70;;;;;;;-0.11;77.16;96056.86;104323;1268;2649975;-81
2022/01/31 02:05:44;;;;;;;11.00;3.40;;;;;;;-0.10;76.57;96078.19;107309;1267;155379;-81
2022/01/31 02:08:19;;;;;;;12.00;3.00;;;;;;;-0.09;76.43;96087.60;107338;1268;133109;-81
2022/01/31 02:10:50;;;;;;;9.40;2.40;;;;;;;-0.09;75.78;96074.10;107433;1267;99596;-81
2022/01/31 02:13:22;;;;;;;10.20;3.10;;;;;;;-0.07;75.57;96081.02;105611;1268;2593916;-80
2022/01/31 02:15:56;;;;;;;7.70;2.50;;;;;;;-0.08;75.62;96077.73;105865;1268;2018344;-82
2022/01/31 02:18:33;;;;;;;11.60;2.40;;;;;;;-0.08;75.53;96077.81;105406;1268;2611539;-81
2022/01/31 02:21:04;;;;;;;12.50;3.20;;;;;;;-0.08;75.00;96070.63;105934;1268;1993145;-81
2022/01/31 02:23:40;;;;;;;9.90;3.10;;;;;;;-0.07;74.62;96069.73;107340;1268;142014;-82
2022/01/31 02:26:13;;;;;;;8.00;2.30;;;;;;;-0.07;74.60;96068.41;106341;1267;1537483;-81
2022/01/31 02:28:44;;;;;;;9.80;3.30;;;;;;;-0.07;74.02;96068.41;107491;1268;109526;-82
2022/01/31 02:31:18;;;;;;;11.90;3.80;;;;;;;-0.07;74.26;96075.50;103664;1267;2175094;-81
2022/01/31 02:33:51;;;;;;;15.40;3.00;;;;;;;-0.09;73.96;96069.86;102823;1268;2326996;-80
2022/01/31 02:36:26;;;;;;;10.60;2.70;;;;;;;-0.09;73.53;96059.55;104468;1268;2247621;-81
2022/01/31 02:38:58;;;;;;;9.50;3.00;;;;;;;-0.08;73.27;96064.05;107244;1267;130275;-81
2022/01/31 02:41:44;;;;;;;8.70;2.70;;;;;;;-0.07;72.97;96056.16;107418;1268;124970;-82
2022/01/31 02:44:21;;;;;;;4.90;2.40;;;;;;;-0.07;72.50;96062.20;106108;1268;2036805;-82
2022/01/31 02:46:55;;;;;;;5.20;2.10;;;;;;;-0.07;72.27;96060.23;104253;1268;2293805;-81
2022/01/31 02:49:33;;;;;;;13.50;3.10;;;;;;;-0.07;72.58;96055.27;107289;1270;137636;-81
2022/01/31 02:52:13;;;;;;;6.20;2.30;;;;;;;-0.09;72.18;96051.73;107302;1267;122209;-81
2022/01/31 02:54:49;;;;;;;12.30;3.00;;;;;;;-0.11;72.37;96043.88;107444;1268;131563;-82
2022/01/31 02:57:24;;;;;;;8.70;2.80;;;;;;;-0.13;72.41;96033.77;105937;1267;1823896;-81
2022/01/31 02:59:55;;;;;;;5.10;2.40;;;;;;;-0.15;72.30;96012.61;107255;1268;142437;-81
2022/01/31 03:02:28;;;;;;;6.30;1.60;;;;;;;-0.15;71.68;96016.79;106150;1268;1835668;-81
2022/01/31 03:05:01;;;;;;;6.20;2.10;;;;;;;-0.18;71.56;96018.80;107477;1268;104856;-81
2022/01/31 03:07:44;;;;;;;9.40;2.70;;;;;;;-0.20;71.46;96018.59;102015;1268;5297911;-81
2022/01/31 03:10:18;;;;;;;8.40;2.60;;;;;;;-0.22;71.62;96012.35;107458;1268;134773;-81
2022/01/31 03:12:55;;;;;;;13.40;3.80;;;;;;;-0.21;70.21;95995.65;106056;1268;2011826;-81
2022/01/31 03:15:24;;;;;;;13.40;3.80;;;;;;;-0.20;70.01;96004.70;103602;1271;3516838;-81
2022/01/31 03:17:57;;;;;;;8.00;3.30;;;;;;;-0.20;69.96;96000.89;104695;1268;1825022;-81
2022/01/31 03:20:29;;;;;;;9.00;2.40;;;;;;;-0.19;70.01;96004.20;107394;1268;103154;-81
2022/01/31 03:23:03;;;;;;;12.70;3.10;;;;;;;-0.20;70.23;96002.60;106003;1268;2002843;-81
2022/01/31 03:25:34;;;;;;;7.80;2.00;;;;;;;-0.21;70.20;96011.48;107382;1268;105112;-81
2022/01/31 03:28:07;;;;;;;16.80;2.90;;;;;;;-0.21;69.71;95996.34;106125;1268;1815012;-81
2022/01/31 03:30:41;;;;;;;8.10;2.50;;;;;;;-0.20;68.99;95994.90;104613;1268;2012254;-81
2022/01/31 03:33:15;;;;;;;9.50;2.20;;;;;;;-0.19;68.91;96003.11;107260;1268;182313;-82
2022/01/31 03:35:46;;;;;;;3.40;1.50;;;;;;;-0.21;68.93;96004.77;107574;1268;113330;-81
2022/01/31 03:38:17;;;;;;;2.90;1.30;;;;;;;-0.23;69.04;96004.63;107473;1268;121142;-81
2022/01/31 03:40:49;;;;;;;10.40;2.40;;;;;;;-0.26;69.10;96003.27;105890;1268;2287829;-82
2022/01/31 03:43:20;;;;;;;7.30;1.70;;;;;;;-0.26;68.98;96011.80;106186;1268;1669610;-81
2022/01/31 03:45:51;;;;;;;10.50;2.50;;;;;;;-0.29;68.78;96004.65;105585;1268;1332271;-81
2022/01/31 03:48:24;;;;;;;8.90;2.40;;;;;;;-0.28;68.93;96009.07;106112;1268;1874402;-81
2022/01/31 03:50:57;;;;;;;11.10;3.80;;;;;;;-0.32;69.09;96004.46;106076;1268;1529960;-81
2022/01/31 03:53:29;;;;;;;10.60;2.80;;;;;;;-0.36;69.39;96009.83;104469;1268;2047308;-81
2022/01/31 03:56:01;;;;;;;11.00;3.00;;;;;;;-0.38;69.60;96004.94;105781;1268;2253380;-81
2022/01/31 03:58:35;;;;;;;8.90;2.60;;;;;;;-0.40;69.15;95988.30;103293;1269;2748817;-81
2022/01/31 04:01:06;;;;;;;9.60;2.60;;;;;;;-0.36;69.29;95998.64;105937;1268;1897063;-81
2022/01/31 04:03:39;;;;;;;9.20;2.50;;;;;;;-0.37;69.56;95994.19;107240;1268;163598;-81
2022/01/31 04:06:10;;;;;;;10.90;2.00;;;;;;;-0.37;69.45;95986.22;104027;1268;4524931;-83
2022/01/31 04:08:41;;;;;;;10.10;2.70;;;;;;;-0.35;69.16;95986.33;104207;1268;2240362;-83
2022/01/31 04:11:16;;;;;;;5.00;2.10;;;;;;;-0.35;69.28;95990.17;106070;1268;1876679;-81
2022/01/31 04:13:47;;;;;;;10.80;3.10;;;;;;;-0.34;69.29;95989.16;106158;1268;2073461;-82
2022/01/31 04:16:19;;;;;;;11.10;3.80;;;;;;;-0.34;69.38;95983.05;106196;1268;1788101;-81
2022/01/31 04:18:52;;;;;;;8.50;2.20;;;;;;;-0.40;69.23;95970.92;105968;1268;2591540;-81
2022/01/31 04:21:27;;;;;;;8.10;2.10;;;;;;;-0.40;68.89;95967.20;106965;1268;378205;-81
2022/01/31 04:23:58;;;;;;;9.80;2.80;;;;;;;-0.42;69.02;95962.09;107412;1268;197101;-81
2022/01/31 04:26:33;;;;;;;10.90;3.20;;;;;;;-0.44;69.46;95963.39;106188;1268;1846758;-81
2022/01/31 04:29:06;;;;;;;9.30;2.60;;;;;;;-0.45;69.06;95960.48;105929;1268;2059685;-81
2022/01/31 04:31:40;;;;;;;11.60;2.80;;;;;;;-0.45;68.89;95955.77;105564;1268;1428573;-81
2022/01/31 04:34:11;;;;;;;5.90;2.00;;;;;;;-0.43;68.52;95934.14;106027;1268;1952604;-81
2022/01/31 04:36:42;;;;;;;4.30;1.90;;;;;;;-0.42;68.31;95950.96;107347;1268;167593;-81
2022/01/31 04:39:17;;;;;;;9.90;2.10;;;;;;;-0.44;68.59;95940.95;106200;1268;1787967;-81
2022/01/31 04:41:50;;;;;;;11.30;2.70;;;;;;;-0.44;68.57;95940.57;107587;1268;129093;-81
2022/01/31 04:44:21;;;;;;;5.20;1.70;;;;;;;-0.44;68.77;95936.23;106153;1268;1562954;-81
2022/01/31 04:46:54;;;;;;;11.50;2.90;;;;;;;-0.44;68.71;95928.90;107129;1268;166633;-81
2022/01/31 04:49:25;;;;;;;7.00;2.10;;;;;;;-0.45;69.12;95936.48;107515;1268;144562;-81
2022/01/31 04:51:57;;;;;;;9.40;3.30;;;;;;;-0.46;69.00;95931.38;107397;1271;127358;-81
2022/01/31 04:54:29;;;;;;;6.50;2.80;;;;;;;-0.44;68.69;95931.15;106484;1268;1254767;-82
2022/01/31 04:57:00;;;;;;;12.00;2.70;;;;;;;-0.43;68.91;95925.29;107519;1266;108583;-82
2022/01/31 04:59:40;;;;;;;6.90;1.40;;;;;;;-0.42;68.51;95918.60;106378;1268;1526159;-81
2022/01/31 05:02:14;;;;;;;8.20;2.20;;;;;;;-0.41;68.33;95921.71;107321;1268;119899;-81
2022/01/31 05:04:45;;;;;;;11.40;2.70;;;;;;;-0.43;68.48;95919.41;107419;1268;283907;-81
2022/01/31 05:07:16;;;;;;;7.40;2.00;;;;;;;-0.43;68.47;95910.95;106642;1268;1435312;-81
2022/01/31 05:09:47;;;;;;;7.50;1.90;;;;;;;-0.47;68.58;95906.50;107439;1268;126230;-81
2022/01/31 05:12:18;;;;;;;11.40;2.20;;;;;;;-0.47;68.41;95899.68;105323;1268;1707803;-81
2022/01/31 05:14:50;;;;;;;6.00;2.10;;;;;;;-0.47;68.31;95907.41;105486;1268;2579668;-80
2022/01/31 05:17:22;;;;;;;7.50;3.00;;;;;;;-0.50;68.67;95907.11;105416;1268;2585536;-81
2022/01/31 05:19:53;;;;;;;13.70;3.30;;;;;;;-0.52;68.41;95906.81;107356;1268;96502;-81
2022/01/31 05:22:24;;;;;;;5.60;2.20;;;;;;;-0.49;68.15;95901.99;106312;1268;1488175;-81
2022/01/31 05:24:55;;;;;;;12.70;3.10;;;;;;;-0.48;68.45;95908.52;107211;1268;186950;-81
2022/01/31 05:27:27;;;;;;;7.70;2.30;;;;;;;-0.48;68.11;95901.23;107267;1267;184250;-81
2022/01/31 05:29:58;;;;;;;8.20;2.20;;;;;;;-0.48;68.20;95907.90;107502;1268;132983;-81
2022/01/31 05:32:31;;;;;;;10.90;2.50;;;;;;;-0.47;67.87;95894.84;103727;1268;1936689;-82
2022/01/31 05:35:04;;;;;;;8.90;2.30;;;;;;;-0.48;68.06;95902.47;107343;1268;244286;-81
2022/01/31 05:37:35;;;;;;;12.50;3.20;;;;;;;-0.52;68.15;95896.98;106373;1268;1254503;-82
2022/01/31 05:40:10;;;;;;;9.70;2.30;;;;;;;-0.57;68.36;95891.75;107363;1268;181767;-81
2022/01/31 05:42:43;;;;;;;5.60;2.00;;;;;;;-0.61;68.35;95875.42;107534;1267;137665;-81
2022/01/31 05:45:14;;;;;;;13.90;3.80;;;;;;;-0.62;68.36;95862.85;107687;1268;128591;-82
2022/01/31 05:47:45;;;;;;;13.80;3.10;;;;;;;-0.66;68.32;95869.48;107653;1268;114715;-81
2022/01/31 05:50:16;;;;;;;11.70;3.10;;;;;;;-0.71;68.40;95855.27;106492;1268;1518584;-81
2022/01/31 05:52:49;;;;;;;9.90;2.70;;;;;;;-0.77;68.55;95846.39;107546;1268;113869;-81
2022/01/31 05:55:20;;;;;;;7.10;2.30;;;;;;;-0.78;68.63;95846.98;107151;1268;165270;-81
2022/01/31 05:57:53;;;;;;;8.20;2.50;;;;;;;-0.78;68.90;95834.52;107239;1268;206348;-81
2022/01/31 06:00:24;;;;;;;6.50;2.00;;;;;;;-0.78;69.06;95832.92;107569;1268;137493;-82
2022/01/31 06:03:00;;;;;;;10.10;2.80;;;;;;;-0.81;68.81;95818.72;107510;1268;89854;-81
2022/01/31 06:05:31;;;;;;;12.10;2.60;;;;;;;-0.84;69.05;95813.44;107386;1268;119407;-81
2022/01/31 06:08:02;;;;;;;6.90;2.40;;;;;;;-0.85;69.13;95812.66;104402;1268;2055111;-81
2022/01/31 06:10:41;;;;;;;7.50;3.20;;;;;;;-0.85;69.37;95807.25;107411;1268;123356;-81
2022/01/31 06:13:12;;;;;;;6.50;2.30;;;;;;;-0.86;69.47;95808.43;107348;1268;174537;-81
2022/01/31 06:15:43;;;;;;;6.80;2.00;;;;;;;-0.87;69.57;95808.65;107233;1268;136362;-81
2022/01/31 06:18:15;;;;;;;9.10;2.10;;;;;;;-0.87;69.29;95807.84;107369;1271;109052;-81
2022/01/31 06:20:48;;;;;;;7.60;2.50;;;;;;;-0.86;69.27;95811.02;107302;1268;125245;-81
2022/01/31 06:23:20;;;;;;;14.20;2.90;;;;;;;-0.84;69.42;95809.02;107399;1268;190241;-80
2022/01/31 06:25:53;;;;;;;6.10;2.70;;;;;;;-0.84;69.46;95813.14;107174;1268;231848;-81
2022/01/31 06:28:25;;;;;;;11.70;2.80;;;;;;;-0.81;69.56;95814.21;107312;1268;160449;-81
2022/01/31 06:30:56;;;;;;;16.50;3.10;;;;;;;-0.82;69.45;95809.98;107432;1268;129185;-81
2022/01/31 06:33:27;;;;;;;8.50;2.30;;;;;;;-0.81;69.71;95809.13;107326;1268;123427;-81
2022/01/31 06:35:58;;;;;;;10.10;2.30;;;;;;;-0.78;69.70;95810.75;107338;1268;122885;-81
2022/01/31 06:38:35;;;;;;;7.90;2.40;;;;;;;-0.75;69.53;95805.20;106170;1268;1561727;-81
2022/01/31 06:41:06;;;;;;;7.90;3.10;;;;;;;-0.72;69.28;95798.17;107288;1268;166046;-82
2022/01/31 06:43:37;;;;;;;12.90;3.20;;;;;;;-0.70;69.44;95793.19;105850;1268;2225132;-81
2022/01/31 06:46:10;;;;;;;6.50;2.20;;;;;;;-0.68;69.31;95793.08;104887;1268;2050718;-81
2022/01/31 06:48:42;;;;;;;7.50;2.80;;;;;;;-0.68;69.18;95783.46;107513;1268;122809;-81
2022/01/31 06:51:13;;;;;;;14.70;3.30;;;;;;;-0.66;69.13;95782.04;107497;1268;155651;-81
2022/01/31 06:53:49;;;;;;;11.30;3.00;;;;;;;-0.66;69.02;95777.30;105661;1268;2593668;-81
2022/01/31 06:56:29;;;;;;;11.10;2.60;;;;;;;-0.66;69.01;95767.89;107010;1268;224352;-81
2022/01/31 06:59:02;;;;;;;14.90;2.70;;;;;;;-0.64;68.88;95767.45;106023;1268;1529938;-81
2022/01/31 07:01:34;;;;;;;10.60;2.70;;;;;;;-0.63;69.03;95771.27;105083;1268;2634283;-81
2022/01/31 07:04:07;;;;;;;8.40;2.50;;;;;;;-0.60;69.12;95768.82;105931;1268;1732169;-81
2022/01/31 07:06:40;;;;;;;8.10;2.70;;;;;;;-0.59;69.11;95770.36;107406;1268;107229;-81
2022/01/31 07:09:12;;;;;;;13.90;3.70;;;;;;;-0.57;68.70;95770.54;105447;1268;2625828;-84
2022/01/31 07:11:44;;;;;;;13.70;3.50;;;;;;;-0.56;68.51;95767.55;105331;1268;2578141;-84
2022/01/31 07:14:30;;;;;;;6.40;2.20;;;;;;;-0.52;68.67;95767.90;107275;1268;228130;-81
2022/01/31 07:17:04;;;;;;;8.60;2.10;;;;;;;-0.49;68.80;95766.91;107292;1268;160710;-81
2022/01/31 07:19:38;;;;;;;7.40;2.60;;;;;;;-0.47;68.50;95766.34;106033;1268;1873218;-81
2022/01/31 07:22:12;;;;;;;10.80;2.90;;;;;;;-0.44;68.61;95760.08;107282;1268;100374;-81
2022/01/31 07:24:47;;;;;;;9.30;2.70;;;;;;;-0.41;68.37;95763.77;107374;1268;163700;-81
2022/01/31 07:27:19;;;;;;;15.90;4.50;;;;;;;-0.40;68.52;95765.50;107484;1268;105821;-81
2022/01/31 07:29:53;;;;;;;8.70;2.80;;;;;;;-0.38;68.37;95768.27;107115;1268;238714;-82
2022/01/31 07:32:26;;;;;;;10.10;2.60;;;;;;;-0.35;68.41;95768.04;105443;1268;2584375;-81
2022/01/31 07:34:58;;;;;;;13.90;2.80;;;;;;;-0.32;68.28;95764.20;104306;1268;2103556;-82
2022/01/31 07:37:30;;;;;;;10.50;3.00;;;;;;;-0.27;68.18;95757.59;107271;1268;139545;-82
2022/01/31 07:40:02;;;;;;;11.20;3.20;;;;;;;-0.24;68.14;95754.05;107555;1268;100695;-81
2022/01/31 07:42:35;;;;;;;7.50;2.30;;;;;;;-0.22;68.19;95753.73;107374;1268;168070;-82
2022/01/31 07:45:08;;;;;;;4.40;2.00;;;;;;;-0.21;67.95;95750.98;107477;1268;113543;-81
2022/01/31 07:47:39;;;;;;;5.00;1.90;;;;;;;-0.19;67.74;95744.81;106178;1268;1585850;-81
2022/01/31 07:50:13;;;;;;;6.80;2.20;;;;;;;-0.18;67.93;95741.34;106054;1268;1810277;-82
2022/01/31 07:52:52;;;;;;;11.10;2.90;;;;;;;-0.15;67.87;95736.66;107187;1268;193106;-81
2022/01/31 07:55:23;;;;;;;5.30;2.50;;;;;;;-0.11;67.65;95735.75;105885;1268;1951446;-81
2022/01/31 07:57:54;;;;;;;16.40;3.60;;;;;;;-0.08;67.52;95727.15;107450;1268;108055;-82
2022/01/31 08:00:26;;;;;;;13.50;3.60;;;;;;;-0.05;67.32;95720.43;107131;1268;224780;-82
2022/01/31 08:02:58;;;;;;;8.30;2.30;;;;;;;-0.02;67.16;95716.38;105311;1268;1354891;-81
2022/01/31 08:05:29;;;;;;;11.20;3.70;;;;;;;0.02;67.32;95699.78;107193;1268;175674;-82
2022/01/31 08:08:01;;;;;;;10.30;3.10;;;;;;;0.02;67.44;95709.89;107286;1268;202114;-82
2022/01/31 08:10:35;;;;;;;9.70;2.70;;;;;;;-0.01;67.16;95699.77;107273;1266;215108;-81
2022/01/31 08:13:08;;;;;;;10.00;3.00;;;;;;;-0.04;67.18;95692.15;107320;1268;136254;-81
2022/01/31 08:15:47;;;;;;;6.30;2.50;;;;;;;-0.05;67.48;95682.61;107139;1268;269189;-82
2022/01/31 08:18:18;;;;;;;10.60;3.40;;;;;;;-0.06;67.56;95683.73;105931;1268;2299782;-82
2022/01/31 08:20:52;;;;;;;12.50;3.30;;;;;;;-0.06;67.16;95680.61;106329;1268;1516634;-80
2022/01/31 08:23:23;;;;;;;10.90;3.10;;;;;;;-0.06;67.45;95675.14;105773;1267;1808658;-81
2022/01/31 08:25:59;;;;;;;16.90;4.60;;;;;;;-0.05;67.13;95672.60;106085;1268;1543186;-81
2022/01/31 08:28:36;;;;;;;8.10;3.80;;;;;;;-0.04;67.55;95673.98;107265;1268;209006;-81
2022/01/31 08:31:14;;;;;;;10.00;4.40;;;;;;;-0.02;67.62;95670.09;105672;1268;2202435;-81
2022/01/31 08:33:49;;;;;;;9.70;4.20;;;;;;;-0.02;67.52;95666.87;106159;1268;1483729;-82
2022/01/31 08:36:23;;;;;;;8.70;4.10;;;;;;;-0.03;67.39;95661.33;106566;1268;1456993;-81
2022/01/31 08:38:56;;;;;;;10.90;3.20;;;;;;;-0.03;67.53;95670.08;107411;1268;186438;-82
2022/01/31 08:41:28;;;;;;;10.80;3.20;;;;;;;-0.02;67.52;95661.28;105778;1268;2101131;-81
2022/01/31 08:43:59;;;;;;;10.80;3.70;;;;;;;-0.01;67.23;95670.43;105736;1268;1938557;-82
2022/01/31 08:46:33;;;;;;;16.90;4.20;;;;;;;0.02;67.42;95672.89;107440;1268;103321;-82
2022/01/31 08:49:04;;;;;;;7.00;3.40;;;;;;;0.04;67.05;95672.23;107392;1268;121626;-82
2022/01/31 08:51:36;;;;;;;15.30;4.10;;;;;;;0.05;66.87;95674.18;107294;1268;152685;-81
2022/01/31 08:54:10;;;;;;;7.70;3.10;;;;;;;0.06;67.14;95669.05;107396;1268;118783;-82
2022/01/31 08:56:45;;;;;;;11.30;3.80;;;;;;;0.09;66.72;95665.22;105647;1268;2097177;-81
2022/01/31 08:59:22;;;;;;;8.20;3.30;;;;;;;0.09;66.41;95664.92;106165;1268;1984540;-81
2022/01/31 09:02:03;;;;;;;13.90;4.50;;;;;;;0.10;66.56;95663.98;105942;1268;1746626;-81
2022/01/31 09:04:41;;;;;;;9.40;4.30;;;;;;;0.11;66.60;95662.19;107126;1267;165724;-81
2022/01/31 09:07:39;;;;;;;11.70;4.00;;;;;;;0.12;66.71;95661.52;106213;1268;1589230;-82
2022/01/31 09:10:11;;;;;;;13.10;4.30;;;;;;;0.12;66.33;95656.20;105856;1268;1866151;-82
2022/01/31 09:12:43;;;;;;;11.80;4.20;;;;;;;0.11;66.16;95643.38;107081;1267;232029;-82
2022/01/31 09:15:14;;;;;;;8.90;3.40;;;;;;;0.13;66.41;95644.55;104649;1268;2072994;-82
2022/01/31 09:21:48;;;;;;;14.20;4.90;;;;;;;0.16;66.71;95640.33;106639;1279;147914;-82
2022/01/31 09:24:20;;;;;;;11.60;4.30;;;;;;;0.18;66.47;95635.58;107222;1273;154460;-82
2022/01/31 09:26:51;;;;;;;15.20;4.40;;;;;;;0.20;66.69;95635.39;105630;1271;1953013;-81
2022/01/31 09:29:23;;;;;;;12.50;4.40;;;;;;;0.25;66.88;95633.02;106858;1273;196809;-82
2022/01/31 09:31:55;;;;;;;15.40;4.90;;;;;;;0.27;66.55;95626.58;106802;1274;216657;-82
2022/01/31 09:34:27;;;;;;;10.80;3.40;;;;;;;0.26;66.26;95621.41;107061;1274;109232;-82
2022/01/31 09:36:59;;;;;;;14.90;5.00;;;;;;;0.26;65.85;95620.67;107023;1273;142493;-81
2022/01/31 09:39:34;;;;;;;13.50;4.60;;;;;;;0.25;66.37;95622.44;106813;1274;143538;-81
2022/01/31 09:42:10;;;;;;;13.90;4.10;;;;;;;0.30;66.72;95621.02;106868;1273;229400;-81
2022/01/31 09:44:50;;;;;;;9.80;3.80;;;;;;;0.33;66.76;95614.28;106747;1273;190435;-82
2022/01/31 09:48:31;;;;;;;12.90;4.00;;;;;;;0.34;66.59;95610.07;105161;1274;2522676;-82
2022/01/31 09:50:27;;;;;;;12.50;4.00;;;;;;;0.35;66.69;95609.55;106042;1274;1278721;-82
2022/01/31 09:52:59;;;;;;;10.70;4.10;;;;;;;0.38;67.08;95605.85;107038;1270;106336;-81
2022/01/31 09:55:30;;;;;;;11.10;3.70;;;;;;;0.43;66.81;95601.87;107117;1271;194261;-81
2022/01/31 09:58:06;;;;;;;9.90;3.80;;;;;;;0.45;66.63;95587.09;107005;1271;172486;-81
2022/01/31 10:00:40;;;;;;;13.50;3.80;;;;;;;0.52;66.32;95582.53;107009;1271;176355;-82
2022/01/31 10:03:12;;;;;;;14.00;4.40;;;;;;;0.53;66.26;95576.65;106310;1271;1315347;-82
2022/01/31 10:05:50;;;;;;;6.30;3.30;;;;;;;0.53;66.33;95566.21;107343;1271;177164;-82
2022/01/31 10:08:31;;;;;;;8.40;3.70;;;;;;;0.52;65.73;95555.05;107239;1269;101464;-81
2022/01/31 10:11:10;;;;;;;11.90;3.70;;;;;;;0.49;65.81;95553.39;107084;1271;108417;-82
2022/01/31 10:16:32;;;;;;;13.40;5.20;;;;;;;0.48;66.01;95548.33;106844;1272;239276;-82
2022/01/31 10:19:07;;;;;;;9.80;3.50;;;;;;;0.52;66.17;95547.28;106865;1271;244022;-82
2022/01/31 10:21:57;;;;;;;14.00;3.60;;;;;;;0.53;65.57;95536.86;106907;1271;197155;-82
2022/01/31 10:24:32;;;;;;;12.30;4.10;;;;;;;0.51;65.58;95526.09;107318;1269;94264;-82
2022/01/31 10:27:13;;;;;;;9.80;3.80;;;;;;;0.52;65.78;95526.00;107058;1271;164264;-82
2022/01/31 10:29:49;;;;;;;16.00;4.50;;;;;;;0.55;66.04;95520.63;107126;1271;111520;-82
2022/01/31 10:32:26;;;;;;;9.10;3.80;;;;;;;0.61;66.14;95522.27;107116;1268;186579;-82
2022/01/31 10:35:01;;;;;;;9.50;3.40;;;;;;;0.64;66.15;95517.08;107331;1268;124365;-82
2022/01/31 10:37:35;;;;;;;11.30;3.70;;;;;;;0.61;65.85;95518.83;107166;1268;197717;-82
2022/01/31 10:45:57;;;;;;;17.00;3.90;;;;;;;0.55;65.57;95509.10;107327;1268;161816;-82
2022/01/31 10:52:03;;;;;;;9.20;3.70;;;;;;;0.52;65.69;95504.68;106824;1273;250421;-82
2022/01/31 10:54:40;;;;;;;10.70;4.40;;;;;;;0.52;65.79;95496.95;107007;1273;100550;-82
2022/01/31 10:57:19;;;;;;;6.10;2.90;;;;;;;0.54;66.06;95490.83;106078;1268;1241277;-82
2022/01/31 10:59:52;;;;;;;9.70;3.10;;;;;;;0.56;65.65;95486.41;107152;1268;216928;-81
2022/01/31 11:02:27;;;;;;;11.30;4.10;;;;;;;0.55;65.66;95483.37;107350;1268;173806;-82
2022/01/31 11:05:00;;;;;;;13.40;4.20;;;;;;;0.55;65.90;95487.13;107082;1271;179609;-82
2022/01/31 11:07:32;;;;;;;10.20;2.80;;;;;;;0.56;65.58;95484.69;107268;1268;164534;-82
2022/01/31 11:10:03;;;;;;;9.20;3.70;;;;;;;0.55;65.53;95483.58;107444;1268;120535;-82
2022/01/31 11:12:35;;;;;;;10.50;4.00;;;;;;;0.56;65.86;95478.55;107351;1268;137672;-83
2022/01/31 11:15:07;;;;;;;10.20;4.40;;;;;;;0.57;65.87;95473.52;107258;1268;152518;-82
2022/01/31 11:17:39;;;;;;;15.40;4.60;;;;;;;0.60;65.91;95466.91;107362;1268;173154;-82
2022/01/31 11:20:13;;;;;;;7.90;3.80;;;;;;;0.62;66.04;95455.30;107433;1268;111087;-82
2022/01/31 11:22:48;;;;;;;11.50;4.60;;;;;;;0.65;65.92;95453.97;107029;1268;275443;-82
2022/01/31 11:25:23;;;;;;;5.50;3.00;;;;;;;0.66;65.90;95450.48;107460;1268;231650;-82
2022/01/31 11:28:00;;;;;;;8.10;3.40;;;;;;;0.65;66.02;95447.40;107327;1268;97435;-82
2022/01/31 11:30:32;;;;;;;13.90;3.90;;;;;;;0.65;65.89;95447.25;107387;1268;163590;-82
2022/01/31 11:33:05;;;;;;;8.40;3.10;;;;;;;0.67;65.95;95446.84;105865;1267;2149913;-82
2022/01/31 11:35:36;;;;;;;10.70;3.80;;;;;;;0.66;66.21;95437.98;107466;1268;113516;-82
2022/01/31 11:38:08;;;;;;;9.40;3.60;;;;;;;0.65;66.32;95435.83;107175;1268;145841;-82
2022/01/31 11:40:40;;;;;;;16.50;4.60;;;;;;;0.64;66.28;95431.52;107224;1268;187339;-82
2022/01/31 11:43:12;;;;;;;11.20;3.80;;;;;;;0.64;66.29;95427.84;107185;1267;185339;-82
2022/01/31 11:45:45;;;;;;;9.20;3.60;;;;;;;0.67;66.45;95420.40;107405;1268;142404;-82
2022/01/31 11:48:23;;;;;;;14.30;4.40;;;;;;;0.70;66.18;95416.77;107614;1267;167596;-82
2022/01/31 11:50:59;;;;;;;15.10;3.90;;;;;;;0.70;66.19;95417.06;107379;1268;137194;-82
2022/01/31 11:53:33;;;;;;;10.60;4.60;;;;;;;0.72;66.17;95410.47;106278;1268;1425799;-82
2022/01/31 11:56:09;;;;;;;10.30;4.00;;;;;;;0.72;65.93;95409.88;105554;1268;2091049;-82
2022/01/31 11:58:47;;;;;;;12.10;3.80;;;;;;;0.73;66.28;95409.95;107415;1268;96141;-82